| time (UTC) | temp F | wind direction | speed knots | gust knots | rain 1hr in | rain 24hr in | rain mn in | humidity % | barometer mb |
| 20260510161503 | 82 | 294 | 1.7 | 10.4 | 0.00 | 0.00 | 0.00 | 42 | 1014.0 |
| 20260510160007 | 82 | 63 | 1.7 | 8.7 | 0.00 | 0.00 | 0.00 | 42 | 1014.2 |
| 20260510154506 | 82 | 75 | 1.7 | 6.1 | 0.00 | 0.00 | 0.00 | 46 | 1014.3 |
| 20260510153006 | 81 | 52 | 1.7 | 6.1 | 0.00 | 0.00 | 0.00 | 48 | 1014.2 |
| 20260510151506 | 80 | 290 | 1.7 | 4.3 | 0.00 | 0.00 | 0.00 | 51 | 1014.2 |
| 20260510150028 | 79 | 54 | 1.7 | 6.1 | 0.00 | 0.00 | 0.00 | 50 | 1014.2 |
| 20260510144506 | 78 | 40 | 1.7 | 6.1 | 0.00 | 0.00 | 0.00 | 54 | 1014.3 |
| 20260510143006 | 76 | 65 | 1.7 | 4.3 | 0.00 | 0.00 | 0.00 | 59 | 1014.3 |
| 20260510141506 | 75 | 60 | 0.0 | 4.3 | 0.00 | 0.00 | 0.00 | 59 | 1014.3 |
| 20260510140006 | 73 | 271 | 1.7 | 4.3 | 0.00 | 0.00 | 0.00 | 63 | 1014.3 |
| 20260510134506 | 72 | 99 | 1.7 | 7.8 | 0.00 | 0.00 | 0.00 | 66 | 1014.2 |
| 20260510133027 | 71 | 296 | 0.0 | 3.5 | 0.00 | 0.00 | 0.00 | 70 | 1014.4 |
| 20260510131506 | 69 | 249 | 0.0 | 3.5 | 0.00 | 0.00 | 0.00 | 71 | 1014.5 |
| 20260510130006 | 68 | 72 | 0.0 | 1.7 | 0.00 | 0.00 | 0.00 | 78 | 1014.4 |
| 20260510124527 | 65 | 285 | 0.0 | 1.7 | 0.00 | 0.00 | 0.00 | 87 | 1014.2 |
| 20260510123027 | 62 | 0 | 0.0 | 0.0 | 0.00 | 0.00 | 0.00 | 93 | 1014.1 |
| 20260510121506 | 59 | 0 | 0.0 | 0.0 | 0.00 | 0.00 | 0.00 | 97 | 1013.9 |
| 20260510120006 | 57 | 0 | 0.0 | 0.0 | 0.00 | 0.00 | 0.00 | 97 | 1013.6 |
| 20260510114527 | 54 | 0 | 0.0 | 0.0 | 0.00 | 0.00 | 0.00 | 97 | 1013.4 |
| 20260510113006 | 52 | 0 | 0.0 | 0.0 | 0.00 | 0.00 | 0.00 | 97 | 1013.2 |
| 20260510111506 | 52 | 0 | 0.0 | 0.0 | 0.00 | 0.00 | 0.00 | 97 | 1012.9 |
| 20260510110006 | 51 | 0 | 0.0 | 0.0 | 0.00 | 0.00 | 0.00 | 96 | 1012.7 |
| 20260510104506 | 52 | 0 | 0.0 | 0.0 | 0.00 | 0.00 | 0.00 | 96 | 1012.4 |
| 20260510103006 | 51 | 0 | 0.0 | 0.0 | 0.00 | 0.00 | 0.00 | 96 | 1012.3 |
| 20260510101506 | 52 | 0 | 0.0 | 0.0 | 0.00 | 0.00 | 0.00 | 96 | 1012.3 |
| 20260510100027 | 52 | 0 | 0.0 | 0.0 | 0.00 | 0.00 | 0.00 | 96 | 1012.3 |
| 20260510094527 | 53 | 0 | 0.0 | 0.0 | 0.00 | 0.00 | 0.00 | 96 | 1012.2 |
| 20260510093006 | 53 | 0 | 0.0 | 0.0 | 0.00 | 0.00 | 0.00 | 96 | 1012.1 |
| 20260510091506 | 53 | 285 | 0.0 | 1.7 | 0.00 | 0.00 | 0.00 | 96 | 1011.8 |
| 20260510090026 | 53 | 285 | 0.0 | 1.7 | 0.00 | 0.00 | 0.00 | 96 | 1011.4 |
| 20260510084505 | 54 | 0 | 0.0 | 0.0 | 0.00 | 0.00 | 0.00 | 96 | 1011.2 |
| 20260510083005 | 54 | 0 | 0.0 | 0.0 | 0.00 | 0.00 | 0.00 | 96 | 1011.1 |
| 20260510081505 | 54 | 79 | 0.0 | 1.7 | 0.00 | 0.00 | 0.00 | 96 | 1011.0 |
| 20260510080006 | 54 | 0 | 0.0 | 0.0 | 0.00 | 0.00 | 0.00 | 95 | 1010.9 |
| 20260510074505 | 54 | 0 | 0.0 | 0.0 | 0.00 | 0.00 | 0.00 | 95 | 1011.0 |
| 20260510073026 | 55 | 0 | 0.0 | 0.0 | 0.00 | 0.00 | 0.00 | 95 | 1011.0 |
| 20260510071505 | 55 | 0 | 0.0 | 0.0 | 0.00 | 0.00 | 0.00 | 95 | 1011.0 |
| 20260510070005 | 56 | 0 | 0.0 | 0.0 | 0.00 | 0.00 | 0.00 | 95 | 1011.0 |
| 20260510064505 | 56 | 0 | 0.0 | 0.0 | 0.00 | 0.00 | 0.00 | 95 | 1011.0 |
| 20260510063005 | 56 | 0 | 0.0 | 0.0 | 0.00 | 0.00 | 0.00 | 95 | 1011.1 |
| 20260510061526 | 57 | 0 | 0.0 | 0.0 | 0.00 | 0.00 | 0.00 | 94 | 1011.1 |
| 20260510060006 | 57 | 0 | 0.0 | 0.0 | 0.00 | 0.00 | 0.00 | 94 | 1011.2 |
| 20260510054505 | 58 | 0 | 0.0 | 0.0 | 0.00 | 0.00 | 0.00 | 93 | 1011.3 |
| 20260510053005 | 58 | 0 | 0.0 | 0.0 | 0.00 | 0.00 | 0.00 | 93 | 1011.3 |
| 20260510051526 | 59 | 0 | 0.0 | 0.0 | 0.00 | 0.00 | 0.00 | 92 | 1011.5 |
| 20260510050005 | 60 | 0 | 0.0 | 0.0 | 0.00 | 0.00 | 0.00 | 92 | 1011.7 |
| 20260510044505 | 60 | 0 | 0.0 | 0.0 | 0.00 | 0.00 | 0.00 | 90 | 1011.7 |
| 20260510043005 | 61 | 0 | 0.0 | 0.0 | 0.00 | 0.00 | 0.00 | 90 | 1011.6 |
| 20260510041505 | 62 | 93 | 0.0 | 1.7 | 0.00 | 0.00 | 0.00 | 90 | 1011.4 |
| 20260510034505 | 62 | 0 | 0.0 | 0.0 | 0.00 | 0.00 | 0.00 | 88 | 1011.2 |
| 20260510033005 | 63 | 0 | 0.0 | 0.0 | 0.00 | 0.00 | 0.00 | 87 | 1011.0 |
| 20260510031526 | 63 | 0 | 0.0 | 0.0 | 0.00 | 0.00 | 0.00 | 86 | 1010.8 |
| 20260510030026 | 64 | 0 | 0.0 | 0.0 | 0.00 | 0.00 | 0.00 | 85 | 1010.9 |
| 20260510024505 | 64 | 0 | 0.0 | 0.0 | 0.00 | 0.00 | 0.00 | 85 | 1010.9 |
| 20260510023004 | 64 | 0 | 0.0 | 0.0 | 0.00 | 0.00 | 0.00 | 84 | 1010.7 |
| 20260510021504 | 65 | 0 | 0.0 | 0.0 | 0.00 | 0.00 | 0.00 | 83 | 1010.5 |
| 20260510020026 | 65 | 0 | 0.0 | 0.0 | 0.00 | 0.00 | 0.00 | 83 | 1010.2 |
| 20260510014504 | 65 | 0 | 0.0 | 0.0 | 0.00 | 0.00 | 0.00 | 82 | 1009.8 |
| 20260510013026 | 65 | 0 | 0.0 | 0.0 | 0.00 | 0.00 | 0.00 | 81 | 1009.4 |
| 20260510011505 | 65 | 0 | 0.0 | 0.0 | 0.00 | 0.00 | 0.00 | 81 | 1009.0 |
| 20260510010005 | 66 | 0 | 0.0 | 0.0 | 0.00 | 0.00 | 0.00 | 80 | 1009.0 |
| 20260510004505 | 67 | 0 | 0.0 | 0.0 | 0.00 | 0.00 | 0.00 | 78 | 1008.8 |
| 20260510003025 | 68 | 0 | 0.0 | 0.0 | 0.00 | 0.00 | 0.00 | 75 | 1008.6 |
| 20260510001504 | 69 | 0 | 0.0 | 0.0 | 0.00 | 0.00 | 0.00 | 73 | 1008.6 |
| 20260510000025 | 70 | 93 | 0.0 | 1.7 | 0.00 | 0.00 | 0.00 | 71 | 1008.5 |
| 20260509234504 | 72 | 0 | 0.0 | 0.0 | 0.00 | 0.00 | 0.00 | 69 | 1008.3 |
| 20260509233004 | 73 | 94 | 0.0 | 1.7 | 0.00 | 0.00 | 0.00 | 66 | 1008.1 |
| 20260509231504 | 75 | 143 | 0.0 | 1.7 | 0.00 | 0.00 | 0.00 | 63 | 1008.2 |
| 20260509230004 | 76 | 104 | 0.0 | 3.5 | 0.00 | 0.00 | 0.00 | 61 | 1008.0 |
| 20260509224504 | 77 | 56 | 0.0 | 3.5 | 0.00 | 0.00 | 0.00 | 61 | 1008.2 |
| 20260509223004 | 75 | 28 | 0.0 | 4.3 | 0.00 | 0.00 | 0.00 | 61 | 1008.3 |
| 20260509221504 | 76 | 258 | 0.0 | 3.5 | 0.00 | 0.00 | 0.00 | 59 | 1008.4 |
| 20260509220025 | 78 | 277 | 1.7 | 4.3 | 0.00 | 0.00 | 0.00 | 55 | 1008.3 |
| 20260509214504 | 80 | 264 | 0.0 | 3.5 | 0.00 | 0.00 | 0.00 | 54 | 1007.9 |
| 20260509213004 | 78 | 293 | 0.0 | 3.5 | 0.00 | 0.00 | 0.00 | 57 | 1007.8 |
| 20260509211525 | 79 | 269 | 0.0 | 7.8 | 0.00 | 0.00 | 0.00 | 52 | 1007.7 |
| 20260509210025 | 80 | 197 | 1.7 | 7.8 | 0.00 | 0.00 | 0.00 | 54 | 1007.5 |
| 20260509204525 | 78 | 101 | 1.7 | 8.7 | 0.00 | 0.00 | 0.00 | 54 | 1007.5 |
| 20260509203025 | 76 | 333 | 0.0 | 6.1 | 0.00 | 0.00 | 0.00 | 59 | 1007.7 |
| 20260509201504 | 76 | 262 | 1.7 | 10.4 | 0.00 | 0.00 | 0.00 | 58 | 1007.7 |
| 20260509200004 | 76 | 278 | 1.7 | 7.8 | 0.00 | 0.00 | 0.00 | 57 | 1007.6 |
| 20260509194504 | 77 | 85 | 0.0 | 4.3 | 0.00 | 0.00 | 0.00 | 58 | 1007.8 |
| 20260509193004 | 78 | 174 | 1.7 | 4.3 | 0.00 | 0.00 | 0.00 | 56 | 1007.8 |
| 20260509191503 | 77 | 93 | 1.7 | 7.8 | 0.00 | 0.00 | 0.00 | 59 | 1008.0 |
| 20260509190004 | 78 | 209 | 1.7 | 8.7 | 0.00 | 0.00 | 0.00 | 53 | 1008.3 |
| 20260509184524 | 79 | 260 | 3.5 | 8.7 | 0.00 | 0.00 | 0.00 | 52 | 1008.5 |
| 20260509183024 | 78 | 156 | 1.7 | 6.1 | 0.00 | 0.00 | 0.00 | 52 | 1008.7 |
| 20260509181525 | 78 | 226 | 3.5 | 8.7 | 0.00 | 0.00 | 0.00 | 52 | 1008.9 |
| 20260509180004 | 76 | 200 | 1.7 | 8.7 | 0.00 | 0.00 | 0.00 | 57 | 1009.3 |
| 20260509174503 | 78 | 201 | 1.7 | 12.2 | 0.00 | 0.00 | 0.00 | 57 | 1009.3 |
| 20260509173003 | 76 | 281 | 1.7 | 8.7 | 0.00 | 0.00 | 0.00 | 57 | 1009.6 |
| 20260509171503 | 75 | 267 | 1.7 | 12.2 | 0.00 | 0.00 | 0.00 | 63 | 1009.8 |
| 20260509170003 | 75 | 229 | 1.7 | 4.3 | 0.00 | 0.00 | 0.00 | 57 | 1009.9 |
| 20260509164503 | 75 | 220 | 3.5 | 8.7 | 0.00 | 0.00 | 0.00 | 59 | 1010.0 |
| 20260509163003 | 74 | 272 | 1.7 | 7.8 | 0.00 | 0.00 | 0.00 | 63 | 1010.2 |